sensor_id;sensor_type;location;lat;lon;timestamp;temperature;humidity
69204;DHT22;56317;27.658;85.326;2023-05-10T00:01:37;14.30;99.90
69204;DHT22;56317;27.658;85.326;2023-05-10T00:04:04;14.40;99.90
69204;DHT22;56317;27.658;85.326;2023-05-10T00:06:31;14.50;99.90
69204;DHT22;56317;27.658;85.326;2023-05-10T00:08:59;14.50;99.90
69204;DHT22;56317;27.658;85.326;2023-05-10T00:11:26;14.60;99.90
69204;DHT22;56317;27.658;85.326;2023-05-10T00:13:53;14.70;99.90
69204;DHT22;56317;27.658;85.326;2023-05-10T00:16:20;14.80;99.90
69204;DHT22;56317;27.658;85.326;2023-05-10T00:18:48;14.90;99.90
69204;DHT22;56317;27.658;85.326;2023-05-10T00:21:15;14.90;99.90
69204;DHT22;56317;27.658;85.326;2023-05-10T00:23:42;15.10;99.90
69204;DHT22;56317;27.658;85.326;2023-05-10T00:26:09;15.20;99.90
69204;DHT22;56317;27.658;85.326;2023-05-10T00:28:37;15.40;99.90
69204;DHT22;56317;27.658;85.326;2023-05-10T00:31:04;15.40;99.90
69204;DHT22;56317;27.658;85.326;2023-05-10T00:33:31;15.60;99.90
69204;DHT22;56317;27.658;85.326;2023-05-10T00:35:58;15.70;99.90
69204;DHT22;56317;27.658;85.326;2023-05-10T00:38:25;15.80;99.90
69204;DHT22;56317;27.658;85.326;2023-05-10T00:40:52;16.00;99.90
69204;DHT22;56317;27.658;85.326;2023-05-10T00:43:20;16.10;99.90
69204;DHT22;56317;27.658;85.326;2023-05-10T00:45:47;16.30;99.90
69204;DHT22;56317;27.658;85.326;2023-05-10T00:48:14;16.40;99.90
69204;DHT22;56317;27.658;85.326;2023-05-10T00:50:42;16.50;99.90
69204;DHT22;56317;27.658;85.326;2023-05-10T00:53:09;16.60;99.90
69204;DHT22;56317;27.658;85.326;2023-05-10T00:55:37;16.80;99.90
69204;DHT22;56317;27.658;85.326;2023-05-10T00:58:05;17.00;99.90
69204;DHT22;56317;27.658;85.326;2023-05-10T01:00:33;17.10;99.90
69204;DHT22;56317;27.658;85.326;2023-05-10T01:03:01;17.20;99.90
69204;DHT22;56317;27.658;85.326;2023-05-10T01:05:28;17.40;99.90
69204;DHT22;56317;27.658;85.326;2023-05-10T01:07:55;17.50;99.90
69204;DHT22;56317;27.658;85.326;2023-05-10T01:10:23;17.60;99.90
69204;DHT22;56317;27.658;85.326;2023-05-10T01:12:50;17.70;99.90
69204;DHT22;56317;27.658;85.326;2023-05-10T01:15:18;17.80;99.90
69204;DHT22;56317;27.658;85.326;2023-05-10T01:17:47;17.90;99.90
69204;DHT22;56317;27.658;85.326;2023-05-10T01:20:15;18.10;99.90
69204;DHT22;56317;27.658;85.326;2023-05-10T01:22:49;18.20;99.90
69204;DHT22;56317;27.658;85.326;2023-05-10T01:25:39;18.30;99.90
69204;DHT22;56317;27.658;85.326;2023-05-10T01:36:27;19.10;99.90
69204;DHT22;56317;27.658;85.326;2023-05-10T01:39:23;19.30;99.90
69204;DHT22;56317;27.658;85.326;2023-05-10T01:42:08;19.40;99.90
69204;DHT22;56317;27.658;85.326;2023-05-10T01:47:58;19.80;99.90
69204;DHT22;56317;27.658;85.326;2023-05-10T01:50:30;20.00;99.90
69204;DHT22;56317;27.658;85.326;2023-05-10T01:53:00;20.10;99.90
69204;DHT22;56317;27.658;85.326;2023-05-10T01:55:43;20.20;99.90
69204;DHT22;56317;27.658;85.326;2023-05-10T01:58:15;20.40;99.90
69204;DHT22;56317;27.658;85.326;2023-05-10T02:00:46;20.60;99.90
69204;DHT22;56317;27.658;85.326;2023-05-10T02:03:15;20.60;99.90
69204;DHT22;56317;27.658;85.326;2023-05-10T02:05:43;20.80;99.90
69204;DHT22;56317;27.658;85.326;2023-05-10T02:08:14;20.90;99.90
69204;DHT22;56317;27.658;85.326;2023-05-10T02:10:44;21.10;99.90
69204;DHT22;56317;27.658;85.326;2023-05-10T02:13:12;21.20;99.90
69204;DHT22;56317;27.658;85.326;2023-05-10T02:15:41;21.40;99.90
69204;DHT22;56317;27.658;85.326;2023-05-10T02:18:09;21.50;99.90
69204;DHT22;56317;27.658;85.326;2023-05-10T02:20:38;21.60;99.90
69204;DHT22;56317;27.658;85.326;2023-05-10T02:23:06;21.70;99.90
69204;DHT22;56317;27.658;85.326;2023-05-10T02:25:34;21.90;99.90
69204;DHT22;56317;27.658;85.326;2023-05-10T02:28:04;22.10;99.90
69204;DHT22;56317;27.658;85.326;2023-05-10T02:30:34;22.30;99.90
69204;DHT22;56317;27.658;85.326;2023-05-10T02:33:02;22.40;99.90
69204;DHT22;56317;27.658;85.326;2023-05-10T02:35:31;22.50;99.90
69204;DHT22;56317;27.658;85.326;2023-05-10T02:38:00;22.60;99.90
69204;DHT22;56317;27.658;85.326;2023-05-10T02:40:28;22.80;99.90
69204;DHT22;56317;27.658;85.326;2023-05-10T02:42:57;22.90;99.90
69204;DHT22;56317;27.658;85.326;2023-05-10T02:45:29;23.20;98.60
69204;DHT22;56317;27.658;85.326;2023-05-10T02:47:57;23.30;98.30
69204;DHT22;56317;27.658;85.326;2023-05-10T02:50:27;23.40;97.40
69204;DHT22;56317;27.658;85.326;2023-05-10T02:53:00;23.50;96.60
69204;DHT22;56317;27.658;85.326;2023-05-10T02:55:36;23.70;96.70
69204;DHT22;56317;27.658;85.326;2023-05-10T02:58:04;23.90;96.70
69204;DHT22;56317;27.658;85.326;2023-05-10T03:00:32;24.00;96.20
69204;DHT22;56317;27.658;85.326;2023-05-10T03:03:00;24.20;95.60
69204;DHT22;56317;27.658;85.326;2023-05-10T03:05:27;24.40;95.10
69204;DHT22;56317;27.658;85.326;2023-05-10T03:07:55;24.40;94.70
69204;DHT22;56317;27.658;85.326;2023-05-10T03:10:27;24.50;94.80
69204;DHT22;56317;27.658;85.326;2023-05-10T03:13:13;24.60;94.60
69204;DHT22;56317;27.658;85.326;2023-05-10T03:15:53;24.80;94.50
69204;DHT22;56317;27.658;85.326;2023-05-10T03:21:28;25.20;93.40
69204;DHT22;56317;27.658;85.326;2023-05-10T03:24:09;25.40;93.20
69204;DHT22;56317;27.658;85.326;2023-05-10T03:26:39;25.50;92.70
69204;DHT22;56317;27.658;85.326;2023-05-10T03:29:07;25.70;93.00
69204;DHT22;56317;27.658;85.326;2023-05-10T03:31:35;25.80;91.80
69204;DHT22;56317;27.658;85.326;2023-05-10T03:34:03;25.90;92.10
69204;DHT22;56317;27.658;85.326;2023-05-10T03:36:30;26.10;92.30
69204;DHT22;56317;27.658;85.326;2023-05-10T03:38:57;26.30;91.80
69204;DHT22;56317;27.658;85.326;2023-05-10T03:41:24;26.50;90.70
69204;DHT22;56317;27.658;85.326;2023-05-10T03:43:52;26.70;91.30
69204;DHT22;56317;27.658;85.326;2023-05-10T03:46:19;26.90;90.80
69204;DHT22;56317;27.658;85.326;2023-05-10T03:48:46;27.10;90.90
69204;DHT22;56317;27.658;85.326;2023-05-10T03:51:14;27.30;89.50
69204;DHT22;56317;27.658;85.326;2023-05-10T03:53:41;27.40;88.00
69204;DHT22;56317;27.658;85.326;2023-05-10T03:56:08;27.50;86.00
69204;DHT22;56317;27.658;85.326;2023-05-10T03:58:35;27.70;87.90
69204;DHT22;56317;27.658;85.326;2023-05-10T04:01:03;27.90;86.50
69204;DHT22;56317;27.658;85.326;2023-05-10T04:03:30;28.00;84.30
69204;DHT22;56317;27.658;85.326;2023-05-10T04:06:01;28.10;83.90
69204;DHT22;56317;27.658;85.326;2023-05-10T04:08:28;28.20;84.60
69204;DHT22;56317;27.658;85.326;2023-05-10T04:11:05;28.40;84.00
69204;DHT22;56317;27.658;85.326;2023-05-10T04:13:33;28.50;82.60
69204;DHT22;56317;27.658;85.326;2023-05-10T04:16:01;28.50;81.80
69204;DHT22;56317;27.658;85.326;2023-05-10T04:18:29;28.60;79.90
69204;DHT22;56317;27.658;85.326;2023-05-10T04:20:56;28.50;79.50
69204;DHT22;56317;27.658;85.326;2023-05-10T04:23:23;28.50;81.20
69204;DHT22;56317;27.658;85.326;2023-05-10T04:25:51;28.60;81.20
69204;DHT22;56317;27.658;85.326;2023-05-10T04:28:18;28.80;79.40
69204;DHT22;56317;27.658;85.326;2023-05-10T04:30:45;29.00;80.30
69204;DHT22;56317;27.658;85.326;2023-05-10T04:33:12;29.20;81.00
69204;DHT22;56317;27.658;85.326;2023-05-10T04:35:41;29.50;80.00
69204;DHT22;56317;27.658;85.326;2023-05-10T04:38:08;29.60;80.90
69204;DHT22;56317;27.658;85.326;2023-05-10T04:40:36;29.80;79.60
69204;DHT22;56317;27.658;85.326;2023-05-10T04:43:03;30.10;80.40
69204;DHT22;56317;27.658;85.326;2023-05-10T04:45:30;30.20;79.10
69204;DHT22;56317;27.658;85.326;2023-05-10T04:48:00;30.40;78.40
69204;DHT22;56317;27.658;85.326;2023-05-10T04:50:27;30.60;78.40
69204;DHT22;56317;27.658;85.326;2023-05-10T04:52:55;30.70;78.70
69204;DHT22;56317;27.658;85.326;2023-05-10T04:55:22;31.00;77.90
69204;DHT22;56317;27.658;85.326;2023-05-10T04:57:50;31.20;76.70
69204;DHT22;56317;27.658;85.326;2023-05-10T05:00:17;31.50;76.20
69204;DHT22;56317;27.658;85.326;2023-05-10T05:02:45;31.60;75.10
69204;DHT22;56317;27.658;85.326;2023-05-10T05:05:13;31.70;74.00
69204;DHT22;56317;27.658;85.326;2023-05-10T05:07:46;31.70;74.10
69204;DHT22;56317;27.658;85.326;2023-05-10T05:10:14;31.50;72.60
69204;DHT22;56317;27.658;85.326;2023-05-10T05:12:41;31.50;75.20
69204;DHT22;56317;27.658;85.326;2023-05-10T05:15:08;31.60;74.40
69204;DHT22;56317;27.658;85.326;2023-05-10T05:17:36;31.60;72.80
69204;DHT22;56317;27.658;85.326;2023-05-10T05:20:04;31.40;71.90
69204;DHT22;56317;27.658;85.326;2023-05-10T05:22:31;31.40;71.90
69204;DHT22;56317;27.658;85.326;2023-05-10T05:24:58;31.50;68.30
69204;DHT22;56317;27.658;85.326;2023-05-10T05:27:27;31.20;68.70
69204;DHT22;56317;27.658;85.326;2023-05-10T05:29:57;31.20;72.80
69204;DHT22;56317;27.658;85.326;2023-05-10T05:32:25;31.20;68.70
69204;DHT22;56317;27.658;85.326;2023-05-10T05:34:53;31.00;68.50
69204;DHT22;56317;27.658;85.326;2023-05-10T05:37:24;30.90;68.80
69204;DHT22;56317;27.658;85.326;2023-05-10T05:39:51;31.00;69.30
69204;DHT22;56317;27.658;85.326;2023-05-10T05:42:18;31.00;68.80
69204;DHT22;56317;27.658;85.326;2023-05-10T05:44:46;31.00;67.60
69204;DHT22;56317;27.658;85.326;2023-05-10T05:47:13;30.90;68.00
69204;DHT22;56317;27.658;85.326;2023-05-10T05:49:41;30.80;67.00
69204;DHT22;56317;27.658;85.326;2023-05-10T05:52:08;30.70;67.50
69204;DHT22;56317;27.658;85.326;2023-05-10T05:54:35;31.00;67.50
69204;DHT22;56317;27.658;85.326;2023-05-10T05:57:15;31.20;66.90
69204;DHT22;56317;27.658;85.326;2023-05-10T05:59:45;31.50;66.40
69204;DHT22;56317;27.658;85.326;2023-05-10T06:02:12;31.80;67.40
69204;DHT22;56317;27.658;85.326;2023-05-10T06:04:40;31.90;66.50
69204;DHT22;56317;27.658;85.326;2023-05-10T06:07:07;31.90;66.10
69204;DHT22;56317;27.658;85.326;2023-05-10T06:09:52;32.10;66.20
69204;DHT22;56317;27.658;85.326;2023-05-10T06:12:20;32.50;66.40
69204;DHT22;56317;27.658;85.326;2023-05-10T06:14:47;32.80;65.90
69204;DHT22;56317;27.658;85.326;2023-05-10T06:17:14;33.10;65.70
69204;DHT22;56317;27.658;85.326;2023-05-10T06:19:42;32.70;66.00
69204;DHT22;56317;27.658;85.326;2023-05-10T06:22:09;32.70;66.50
69204;DHT22;56317;27.658;85.326;2023-05-10T06:24:37;32.60;65.90
69204;DHT22;56317;27.658;85.326;2023-05-10T06:27:04;32.50;65.60
69204;DHT22;56317;27.658;85.326;2023-05-10T06:29:32;32.50;65.50
69204;DHT22;56317;27.658;85.326;2023-05-10T06:32:00;32.50;65.50
69204;DHT22;56317;27.658;85.326;2023-05-10T06:34:27;32.50;65.20
69204;DHT22;56317;27.658;85.326;2023-05-10T06:36:58;32.50;64.90
69204;DHT22;56317;27.658;85.326;2023-05-10T06:39:25;32.60;64.20
69204;DHT22;56317;27.658;85.326;2023-05-10T06:41:53;32.50;65.00
69204;DHT22;56317;27.658;85.326;2023-05-10T06:44:20;32.50;65.10
69204;DHT22;56317;27.658;85.326;2023-05-10T06:46:48;32.80;64.40
69204;DHT22;56317;27.658;85.326;2023-05-10T06:49:16;34.20;65.50
69204;DHT22;56317;27.658;85.326;2023-05-10T06:51:44;37.00;63.40
69204;DHT22;56317;27.658;85.326;2023-05-10T06:54:11;39.00;62.40
69204;DHT22;56317;27.658;85.326;2023-05-10T06:56:39;39.70;61.00
69204;DHT22;56317;27.658;85.326;2023-05-10T06:59:06;40.10;60.00
69204;DHT22;56317;27.658;85.326;2023-05-10T07:01:37;40.70;59.70
69204;DHT22;56317;27.658;85.326;2023-05-10T07:04:04;41.70;58.80
69204;DHT22;56317;27.658;85.326;2023-05-10T07:06:32;42.20;59.20
69204;DHT22;56317;27.658;85.326;2023-05-10T07:09:00;43.10;58.80
69204;DHT22;56317;27.658;85.326;2023-05-10T07:11:27;43.30;58.10
69204;DHT22;56317;27.658;85.326;2023-05-10T07:13:55;43.40;56.50
69204;DHT22;56317;27.658;85.326;2023-05-10T07:16:22;43.50;57.40
69204;DHT22;56317;27.658;85.326;2023-05-10T07:18:50;44.10;57.00
69204;DHT22;56317;27.658;85.326;2023-05-10T07:21:17;44.00;56.50
69204;DHT22;56317;27.658;85.326;2023-05-10T07:23:45;44.00;56.60
69204;DHT22;56317;27.658;85.326;2023-05-10T07:26:12;44.10;55.90
69204;DHT22;56317;27.658;85.326;2023-05-10T07:28:41;44.60;55.60
69204;DHT22;56317;27.658;85.326;2023-05-10T07:31:10;44.90;55.70
69204;DHT22;56317;27.658;85.326;2023-05-10T07:33:37;45.40;54.90
69204;DHT22;56317;27.658;85.326;2023-05-10T07:36:05;45.40;55.20
69204;DHT22;56317;27.658;85.326;2023-05-10T07:38:32;45.30;54.90
69204;DHT22;56317;27.658;85.326;2023-05-10T07:41:00;45.20;54.90
69204;DHT22;56317;27.658;85.326;2023-05-10T07:43:28;45.20;55.00
69204;DHT22;56317;27.658;85.326;2023-05-10T07:45:55;44.50;54.80
69204;DHT22;56317;27.658;85.326;2023-05-10T07:48:24;44.70;54.60
69204;DHT22;56317;27.658;85.326;2023-05-10T07:50:54;44.70;54.80
69204;DHT22;56317;27.658;85.326;2023-05-10T07:53:24;44.50;54.40
69204;DHT22;56317;27.658;85.326;2023-05-10T07:55:57;44.20;55.30
69204;DHT22;56317;27.658;85.326;2023-05-10T07:58:25;43.60;55.40
69204;DHT22;56317;27.658;85.326;2023-05-10T08:00:52;43.30;56.30
69204;DHT22;56317;27.658;85.326;2023-05-10T08:03:20;43.80;56.20
69204;DHT22;56317;27.658;85.326;2023-05-10T08:05:47;44.20;56.70
69204;DHT22;56317;27.658;85.326;2023-05-10T08:08:15;45.10;56.20
69204;DHT22;56317;27.658;85.326;2023-05-10T08:10:42;45.50;55.50
69204;DHT22;56317;27.658;85.326;2023-05-10T08:13:09;45.40;56.10
69204;DHT22;56317;27.658;85.326;2023-05-10T08:15:37;44.80;56.70
69204;DHT22;56317;27.658;85.326;2023-05-10T08:18:04;44.70;57.30
69204;DHT22;56317;27.658;85.326;2023-05-10T08:20:32;45.10;56.70
69204;DHT22;56317;27.658;85.326;2023-05-10T08:23:00;44.80;57.00
69204;DHT22;56317;27.658;85.326;2023-05-10T08:25:27;45.00;56.90
69204;DHT22;56317;27.658;85.326;2023-05-10T08:27:55;44.50;57.60
69204;DHT22;56317;27.658;85.326;2023-05-10T08:30:22;44.30;58.20
69204;DHT22;56317;27.658;85.326;2023-05-10T08:32:51;44.20;59.00
69204;DHT22;56317;27.658;85.326;2023-05-10T08:35:18;44.70;59.60
69204;DHT22;56317;27.658;85.326;2023-05-10T08:37:46;44.00;60.00
69204;DHT22;56317;27.658;85.326;2023-05-10T08:40:14;43.10;61.00
69204;DHT22;56317;27.658;85.326;2023-05-10T08:42:51;42.90;62.10
69204;DHT22;56317;27.658;85.326;2023-05-10T08:45:23;43.30;61.60
69204;DHT22;56317;27.658;85.326;2023-05-10T08:47:52;43.30;60.50
69204;DHT22;56317;27.658;85.326;2023-05-10T08:50:23;42.60;61.50
69204;DHT22;56317;27.658;85.326;2023-05-10T08:52:53;42.30;62.30
69204;DHT22;56317;27.658;85.326;2023-05-10T08:57:50;42.60;62.10
69204;DHT22;56317;27.658;85.326;2023-05-10T09:00:19;42.60;63.90
69204;DHT22;56317;27.658;85.326;2023-05-10T09:02:47;43.00;65.30
69204;DHT22;56317;27.658;85.326;2023-05-10T09:05:15;43.30;62.70
69204;DHT22;56317;27.658;85.326;2023-05-10T09:07:44;43.70;61.10
69204;DHT22;56317;27.658;85.326;2023-05-10T09:12:40;43.70;62.50
69204;DHT22;56317;27.658;85.326;2023-05-10T09:15:09;43.00;60.20
69204;DHT22;56317;27.658;85.326;2023-05-10T09:17:39;43.00;61.30
69204;DHT22;56317;27.658;85.326;2023-05-10T09:20:07;42.90;60.20
69204;DHT22;56317;27.658;85.326;2023-05-10T09:22:35;42.60;61.70
69204;DHT22;56317;27.658;85.326;2023-05-10T09:25:14;42.50;61.50
69204;DHT22;56317;27.658;85.326;2023-05-10T09:27:45;42.60;61.80
69204;DHT22;56317;27.658;85.326;2023-05-10T09:30:24;42.50;62.90
69204;DHT22;56317;27.658;85.326;2023-05-10T09:35:22;41.50;62.80
69204;DHT22;56317;27.658;85.326;2023-05-10T09:37:53;41.50;66.00
69204;DHT22;56317;27.658;85.326;2023-05-10T09:40:25;41.30;63.40
69204;DHT22;56317;27.658;85.326;2023-05-10T09:43:01;40.90;62.80
69204;DHT22;56317;27.658;85.326;2023-05-10T09:45:36;41.90;62.40
69204;DHT22;56317;27.658;85.326;2023-05-10T09:48:06;41.50;61.90
69204;DHT22;56317;27.658;85.326;2023-05-10T09:50:34;41.90;53.90
69204;DHT22;56317;27.658;85.326;2023-05-10T09:53:03;41.40;53.90
69204;DHT22;56317;27.658;85.326;2023-05-10T09:55:44;41.40;54.30
69204;DHT22;56317;27.658;85.326;2023-05-10T09:58:13;41.60;53.90
69204;DHT22;56317;27.658;85.326;2023-05-10T10:00:42;41.70;53.30
69204;DHT22;56317;27.658;85.326;2023-05-10T10:03:18;41.90;53.20
69204;DHT22;56317;27.658;85.326;2023-05-10T10:05:47;42.30;53.40
69204;DHT22;56317;27.658;85.326;2023-05-10T10:08:16;42.90;52.40
69204;DHT22;56317;27.658;85.326;2023-05-10T10:10:44;42.90;52.20
69204;DHT22;56317;27.658;85.326;2023-05-10T10:13:13;42.80;51.70
69204;DHT22;56317;27.658;85.326;2023-05-10T10:15:42;42.20;51.80
69204;DHT22;56317;27.658;85.326;2023-05-10T10:18:17;42.20;51.10
69204;DHT22;56317;27.658;85.326;2023-05-10T10:20:45;42.30;51.00
69204;DHT22;56317;27.658;85.326;2023-05-10T10:23:12;42.10;50.70
69204;DHT22;56317;27.658;85.326;2023-05-10T10:25:40;42.00;51.10
69204;DHT22;56317;27.658;85.326;2023-05-10T10:34:29;40.20;50.70
69204;DHT22;56317;27.658;85.326;2023-05-10T10:36:59;39.90;50.40
69204;DHT22;56317;27.658;85.326;2023-05-10T10:39:31;40.10;50.70
69204;DHT22;56317;27.658;85.326;2023-05-10T10:41:59;40.30;50.10
69204;DHT22;56317;27.658;85.326;2023-05-10T10:44:37;39.80;50.40
69204;DHT22;56317;27.658;85.326;2023-05-10T10:49:50;39.10;50.50
69204;DHT22;56317;27.658;85.326;2023-05-10T10:52:36;38.50;50.70
69204;DHT22;56317;27.658;85.326;2023-05-10T10:55:09;38.50;51.00
69204;DHT22;56317;27.658;85.326;2023-05-10T10:57:44;38.20;50.90
69204;DHT22;56317;27.658;85.326;2023-05-10T11:00:24;37.90;51.50
69204;DHT22;56317;27.658;85.326;2023-05-10T11:10:53;37.30;51.50
69204;DHT22;56317;27.658;85.326;2023-05-10T11:16:23;35.70;53.60
69204;DHT22;56317;27.658;85.326;2023-05-10T11:19:09;34.40;55.70
69204;DHT22;56317;27.658;85.326;2023-05-10T11:21:51;32.70;48.10
69204;DHT22;56317;27.658;85.326;2023-05-10T11:24:37;31.10;49.20
69204;DHT22;56317;27.658;85.326;2023-05-10T11:29:33;29.20;65.10
69204;DHT22;56317;27.658;85.326;2023-05-10T11:32:00;29.10;57.60
69204;DHT22;56317;27.658;85.326;2023-05-10T11:34:29;28.80;57.60
69204;DHT22;56317;27.658;85.326;2023-05-10T11:36:58;28.40;57.70
69204;DHT22;56317;27.658;85.326;2023-05-10T11:39:29;28.20;58.70
69204;DHT22;56317;27.658;85.326;2023-05-10T11:41:57;27.90;59.50
69204;DHT22;56317;27.658;85.326;2023-05-10T11:44:30;27.70;59.90
69204;DHT22;56317;27.658;85.326;2023-05-10T11:47:03;27.40;60.50
69204;DHT22;56317;27.658;85.326;2023-05-10T11:49:32;27.20;61.00
69204;DHT22;56317;27.658;85.326;2023-05-10T11:52:06;26.90;60.60
69204;DHT22;56317;27.658;85.326;2023-05-10T11:54:34;26.70;61.20
69204;DHT22;56317;27.658;85.326;2023-05-10T11:57:03;26.50;62.00
69204;DHT22;56317;27.658;85.326;2023-05-10T11:59:31;26.30;59.30
69204;DHT22;56317;27.658;85.326;2023-05-10T12:01:58;26.10;59.20
69204;DHT22;56317;27.658;85.326;2023-05-10T12:04:26;26.00;59.50
69204;DHT22;56317;27.658;85.326;2023-05-10T12:06:55;25.80;59.80
69204;DHT22;56317;27.658;85.326;2023-05-10T12:09:23;25.80;60.50
69204;DHT22;56317;27.658;85.326;2023-05-10T12:11:55;25.70;60.50
69204;DHT22;56317;27.658;85.326;2023-05-10T12:14:27;25.60;59.10
69204;DHT22;56317;27.658;85.326;2023-05-10T12:16:57;25.50;58.90
69204;DHT22;56317;27.658;85.326;2023-05-10T12:19:25;25.40;59.60
69204;DHT22;56317;27.658;85.326;2023-05-10T12:21:52;25.30;59.10
69204;DHT22;56317;27.658;85.326;2023-05-10T12:24:20;25.20;59.90
69204;DHT22;56317;27.658;85.326;2023-05-10T12:26:47;25.10;62.20
69204;DHT22;56317;27.658;85.326;2023-05-10T12:29:19;25.00;62.80
69204;DHT22;56317;27.658;85.326;2023-05-10T12:31:58;24.80;64.90
69204;DHT22;56317;27.658;85.326;2023-05-10T12:34:33;24.70;63.40
69204;DHT22;56317;27.658;85.326;2023-05-10T12:37:03;24.50;61.10
69204;DHT22;56317;27.658;85.326;2023-05-10T12:39:41;24.40;60.40
69204;DHT22;56317;27.658;85.326;2023-05-10T12:42:09;24.30;61.20
69204;DHT22;56317;27.658;85.326;2023-05-10T12:44:36;24.20;62.30
69204;DHT22;56317;27.658;85.326;2023-05-10T12:47:04;24.10;62.60
69204;DHT22;56317;27.658;85.326;2023-05-10T12:49:32;24.00;60.00
69204;DHT22;56317;27.658;85.326;2023-05-10T12:52:00;24.00;60.40
69204;DHT22;56317;27.658;85.326;2023-05-10T12:54:28;23.90;61.50
69204;DHT22;56317;27.658;85.326;2023-05-10T12:56:55;23.90;62.00
69204;DHT22;56317;27.658;85.326;2023-05-10T12:59:22;23.90;60.70
69204;DHT22;56317;27.658;85.326;2023-05-10T13:01:50;23.90;61.10
69204;DHT22;56317;27.658;85.326;2023-05-10T13:04:17;23.80;60.70
69204;DHT22;56317;27.658;85.326;2023-05-10T13:06:45;23.80;60.10
69204;DHT22;56317;27.658;85.326;2023-05-10T13:09:16;23.70;59.90
69204;DHT22;56317;27.658;85.326;2023-05-10T13:11:44;23.70;59.50
69204;DHT22;56317;27.658;85.326;2023-05-10T13:14:11;23.60;59.50
69204;DHT22;56317;27.658;85.326;2023-05-10T13:16:41;23.60;59.70
69204;DHT22;56317;27.658;85.326;2023-05-10T13:19:08;23.50;59.70
69204;DHT22;56317;27.658;85.326;2023-05-10T13:21:36;23.30;60.10
69204;DHT22;56317;27.658;85.326;2023-05-10T13:24:03;23.10;60.40
69204;DHT22;56317;27.658;85.326;2023-05-10T13:26:32;23.10;60.30
69204;DHT22;56317;27.658;85.326;2023-05-10T13:28:59;23.00;60.50
69204;DHT22;56317;27.658;85.326;2023-05-10T13:31:27;22.90;60.70
69204;DHT22;56317;27.658;85.326;2023-05-10T13:33:55;22.80;60.10
69204;DHT22;56317;27.658;85.326;2023-05-10T13:36:22;22.70;59.70
69204;DHT22;56317;27.658;85.326;2023-05-10T13:38:50;22.70;59.70
69204;DHT22;56317;27.658;85.326;2023-05-10T13:41:17;22.50;59.70
69204;DHT22;56317;27.658;85.326;2023-05-10T13:43:45;22.50;60.00
69204;DHT22;56317;27.658;85.326;2023-05-10T13:46:15;22.40;60.00
69204;DHT22;56317;27.658;85.326;2023-05-10T13:48:42;22.30;60.30
69204;DHT22;56317;27.658;85.326;2023-05-10T13:51:10;22.20;60.20
69204;DHT22;56317;27.658;85.326;2023-05-10T13:53:39;22.10;60.40
69204;DHT22;56317;27.658;85.326;2023-05-10T13:56:10;22.00;60.50
69204;DHT22;56317;27.658;85.326;2023-05-10T13:58:37;22.00;60.50
69204;DHT22;56317;27.658;85.326;2023-05-10T14:01:05;21.90;60.20
69204;DHT22;56317;27.658;85.326;2023-05-10T14:03:33;21.70;60.70
69204;DHT22;56317;27.658;85.326;2023-05-10T14:06:01;21.60;61.00
69204;DHT22;56317;27.658;85.326;2023-05-10T14:08:29;21.50;61.30
69204;DHT22;56317;27.658;85.326;2023-05-10T14:10:56;21.50;62.30
69204;DHT22;56317;27.658;85.326;2023-05-10T14:13:24;21.50;62.40
69204;DHT22;56317;27.658;85.326;2023-05-10T14:15:53;21.50;62.50
69204;DHT22;56317;27.658;85.326;2023-05-10T14:18:21;21.50;62.30
69204;DHT22;56317;27.658;85.326;2023-05-10T14:20:49;21.50;60.50
69204;DHT22;56317;27.658;85.326;2023-05-10T14:23:16;21.40;60.70
69204;DHT22;56317;27.658;85.326;2023-05-10T14:25:46;21.30;60.90
69204;DHT22;56317;27.658;85.326;2023-05-10T14:28:17;21.10;61.40
69204;DHT22;56317;27.658;85.326;2023-05-10T14:30:49;21.00;62.10
69204;DHT22;56317;27.658;85.326;2023-05-10T14:33:20;21.00;62.30
69204;DHT22;56317;27.658;85.326;2023-05-10T14:35:50;21.00;62.40
69204;DHT22;56317;27.658;85.326;2023-05-10T14:38:18;21.00;62.40
69204;DHT22;56317;27.658;85.326;2023-05-10T14:40:45;21.00;62.50
69204;DHT22;56317;27.658;85.326;2023-05-10T14:43:13;20.90;62.80
69204;DHT22;56317;27.658;85.326;2023-05-10T14:45:41;20.80;62.90
69204;DHT22;56317;27.658;85.326;2023-05-10T14:48:08;20.80;63.40
69204;DHT22;56317;27.658;85.326;2023-05-10T14:50:39;20.70;63.90
69204;DHT22;56317;27.658;85.326;2023-05-10T14:53:07;20.60;63.30
69204;DHT22;56317;27.658;85.326;2023-05-10T14:55:34;20.50;62.70
69204;DHT22;56317;27.658;85.326;2023-05-10T14:58:03;20.40;62.90
69204;DHT22;56317;27.658;85.326;2023-05-10T15:00:33;20.30;63.60
69204;DHT22;56317;27.658;85.326;2023-05-10T15:03:01;20.20;64.10
69204;DHT22;56317;27.658;85.326;2023-05-10T15:05:28;20.20;64.70
69204;DHT22;56317;27.658;85.326;2023-05-10T15:07:56;20.00;65.20
69204;DHT22;56317;27.658;85.326;2023-05-10T15:10:24;19.90;65.60
69204;DHT22;56317;27.658;85.326;2023-05-10T15:12:52;19.80;66.00
69204;DHT22;56317;27.658;85.326;2023-05-10T15:15:20;19.80;66.40
69204;DHT22;56317;27.658;85.326;2023-05-10T15:17:51;19.70;66.10
69204;DHT22;56317;27.658;85.326;2023-05-10T15:20:18;19.60;66.80
69204;DHT22;56317;27.658;85.326;2023-05-10T15:22:46;19.50;67.10
69204;DHT22;56317;27.658;85.326;2023-05-10T15:25:14;19.50;68.20
69204;DHT22;56317;27.658;85.326;2023-05-10T15:27:43;19.50;68.00
69204;DHT22;56317;27.658;85.326;2023-05-10T15:30:11;19.50;68.20
69204;DHT22;56317;27.658;85.326;2023-05-10T15:32:39;19.50;68.30
69204;DHT22;56317;27.658;85.326;2023-05-10T15:35:08;19.40;67.90
69204;DHT22;56317;27.658;85.326;2023-05-10T15:37:39;19.30;68.30
69204;DHT22;56317;27.658;85.326;2023-05-10T15:40:07;19.20;68.60
69204;DHT22;56317;27.658;85.326;2023-05-10T15:42:35;19.00;69.30
69204;DHT22;56317;27.658;85.326;2023-05-10T15:45:06;18.90;70.20
69204;DHT22;56317;27.658;85.326;2023-05-10T15:47:33;18.70;70.90
69204;DHT22;56317;27.658;85.326;2023-05-10T15:50:01;18.70;71.90
69204;DHT22;56317;27.658;85.326;2023-05-10T15:52:29;18.60;72.00
69204;DHT22;56317;27.658;85.326;2023-05-10T15:54:57;18.60;72.00
69204;DHT22;56317;27.658;85.326;2023-05-10T15:57:24;18.50;72.10
69204;DHT22;56317;27.658;85.326;2023-05-10T15:59:51;18.40;72.80
69204;DHT22;56317;27.658;85.326;2023-05-10T16:02:19;18.30;73.90
69204;DHT22;56317;27.658;85.326;2023-05-10T16:04:47;18.30;73.80
69204;DHT22;56317;27.658;85.326;2023-05-10T16:07:15;18.10;75.00
69204;DHT22;56317;27.658;85.326;2023-05-10T16:09:42;18.00;75.60
69204;DHT22;56317;27.658;85.326;2023-05-10T16:12:10;17.90;76.10